Time;durP1;ratioP1;P1;durP2;ratioP2;P2;SDS_P1;SDS_P2;PMS_P1;PMS_P2;Temp;Humidity;BMP_temperature;BMP_pressure;BME280_temperature;BME280_humidity;BME280_pressure;Samples;Min_cycle;Max_cycle;Signal;HPM_P1;HPM_P2
2022/11/10 00:00:26;;;;;;;5.55;1.55;;;20.20;47.50;19.40;101180.00;;;;5071167;28;20036;-73
2022/11/10 00:02:52;;;;;;;5.37;1.30;;;20.20;47.50;19.40;101177.00;;;;5071094;28;20420;-73
2022/11/10 00:05:18;;;;;;;4.87;1.20;;;20.20;47.50;19.40;101184.00;;;;5070702;28;20542;-73
2022/11/10 00:07:44;;;;;;;2.97;1.30;;;20.20;47.50;19.40;101186.00;;;;5070841;28;20086;-73
2022/11/10 00:10:09;;;;;;;3.87;1.30;;;20.20;47.50;19.40;101183.00;;;;5053211;28;20488;-73
2022/11/10 00:12:35;;;;;;;5.30;1.10;;;20.20;47.50;19.40;101186.00;;;;5080650;28;20083;-73
2022/11/10 00:17:46;;;;;;;6.10;1.30;;;20.20;47.50;19.40;101192.00;;;;5055664;28;20393;-73
2022/11/10 00:20:11;;;;;;;5.17;1.40;;;20.30;47.50;19.40;101194.00;;;;5070638;28;20033;-73
2022/11/10 00:22:38;;;;;;;3.77;1.10;;;20.20;47.50;19.40;101209.00;;;;5053277;28;20016;-73
2022/11/10 00:25:05;;;;;;;3.42;1.30;;;20.30;47.60;19.40;101201.00;;;;5052658;28;20383;-73
2022/11/10 00:27:34;;;;;;;4.40;1.17;;;20.20;47.50;19.40;101207.00;;;;5070867;28;20020;-73
2022/11/10 00:29:59;;;;;;;7.13;1.38;;;20.20;47.50;19.40;101215.00;;;;5071144;28;20040;-73
2022/11/10 00:32:25;;;;;;;5.40;1.50;;;20.20;47.50;19.40;101218.00;;;;5052535;28;20045;-73
2022/11/10 00:34:51;;;;;;;7.40;1.47;;;20.20;47.50;19.40;101221.00;;;;5070069;28;20908;-73
2022/11/10 00:37:17;;;;;;;3.47;1.10;;;20.20;47.50;19.40;101224.00;;;;5064474;28;20393;-73
2022/11/10 00:39:42;;;;;;;5.97;1.10;;;20.20;47.50;19.40;101220.00;;;;5070383;28;20040;-73
2022/11/10 00:42:08;;;;;;;4.43;1.37;;;20.30;47.60;19.40;101222.00;;;;5079266;28;20091;-74
2022/11/10 00:44:34;;;;;;;5.70;1.40;;;20.30;47.50;19.40;101227.00;;;;5052973;28;20493;-73
2022/11/10 00:47:00;;;;;;;4.83;1.43;;;20.20;47.50;19.40;101224.00;;;;5070728;28;20369;-73
2022/11/10 00:49:26;;;;;;;2.93;1.43;;;20.20;47.50;19.40;101225.00;;;;5051244;28;20060;-73
2022/11/10 00:51:52;;;;;;;6.22;1.55;;;20.20;47.50;19.40;101229.00;;;;5070186;28;20077;-73
2022/11/10 00:54:17;;;;;;;3.97;1.00;;;20.20;47.40;19.40;101231.00;;;;5070301;28;20036;-73
2022/11/10 00:56:43;;;;;;;5.37;1.33;;;20.20;47.50;19.40;101226.00;;;;5053611;28;20031;-73
2022/11/10 00:59:09;;;;;;;4.90;1.43;;;20.20;47.40;19.40;101227.00;;;;5069095;28;20123;-73
2022/11/10 01:01:35;;;;;;;3.43;1.00;;;20.20;47.50;19.40;101228.00;;;;5069637;28;20078;-73
2022/11/10 01:04:00;;;;;;;5.97;1.40;;;20.20;47.40;19.40;101223.00;;;;5052340;28;20112;-73
2022/11/10 01:06:26;;;;;;;5.93;0.93;;;20.20;47.50;19.40;101225.00;;;;5070276;28;20035;-73
2022/11/10 01:08:52;;;;;;;4.90;1.37;;;20.20;47.50;19.40;101226.00;;;;5069823;28;20107;-73
2022/11/10 01:11:20;;;;;;;4.87;1.30;;;20.20;47.50;19.40;101230.00;;;;5069841;28;20075;-73
2022/11/10 01:13:48;;;;;;;5.65;1.20;;;20.20;47.60;19.40;101237.00;;;;5052040;28;20035;-73
2022/11/10 01:16:16;;;;;;;4.07;1.42;;;20.20;47.50;19.40;101244.00;;;;5052519;28;20409;-73
2022/11/10 01:18:42;;;;;;;4.35;1.00;;;20.20;47.50;19.40;101249.00;;;;5051850;28;20033;-73
2022/11/10 01:21:08;;;;;;;4.37;1.37;;;20.20;47.50;19.40;101254.00;;;;5054311;28;20028;-73
2022/11/10 01:23:34;;;;;;;3.05;0.93;;;20.20;47.60;19.40;101261.00;;;;5051275;28;20502;-73
2022/11/10 01:26:02;;;;;;;5.07;1.30;;;20.20;47.50;19.40;101263.00;;;;5053244;28;20039;-73
2022/11/10 01:28:28;;;;;;;5.97;1.00;;;20.20;47.60;19.40;101263.00;;;;5053290;28;20029;-73
2022/11/10 01:31:02;;;;;;;5.90;1.07;;;20.20;47.50;19.40;101269.00;;;;5069275;28;20093;-73
2022/11/10 01:33:28;;;;;;;5.25;1.30;;;20.20;47.50;19.40;101273.00;;;;5033342;28;20459;-73
2022/11/10 01:35:54;;;;;;;5.80;1.37;;;20.20;47.50;19.40;101265.00;;;;5070124;28;20106;-73
2022/11/10 01:38:20;;;;;;;6.77;1.73;;;20.20;47.50;19.40;101264.00;;;;5052435;28;20040;-73
2022/11/10 01:40:45;;;;;;;4.72;1.40;;;20.20;47.50;19.40;101278.00;;;;5069467;28;20103;-73
2022/11/10 01:43:11;;;;;;;4.57;1.20;;;20.20;47.50;19.40;101286.00;;;;5069519;28;20371;-73
2022/11/10 01:45:44;;;;;;;4.53;1.77;;;20.20;47.50;19.40;101291.00;;;;5052213;28;20025;-73
2022/11/10 01:48:16;;;;;;;4.47;0.98;;;20.20;47.50;19.40;101293.00;;;;5071908;28;20024;-73
2022/11/10 01:50:42;;;;;;;7.97;1.58;;;20.20;47.60;19.40;101294.00;;;;5038507;28;20087;-73
2022/11/10 01:53:10;;;;;;;3.87;1.00;;;20.20;47.60;19.40;101290.00;;;;5047006;28;20041;-73
2022/11/10 01:55:36;;;;;;;2.45;1.15;;;20.20;47.60;19.40;101288.00;;;;5053753;28;20024;-73
2022/11/10 01:58:02;;;;;;;4.32;1.10;;;20.20;47.60;19.40;101288.00;;;;5047999;28;20037;-73
2022/11/10 02:00:28;;;;;;;5.00;1.50;;;20.20;47.60;19.40;101298.00;;;;5051824;28;20060;-73
2022/11/10 02:03:28;;;;;;;4.87;1.23;;;20.20;47.60;19.40;101297.00;;;;5072112;28;20039;-73
2022/11/10 02:05:54;;;;;;;8.88;2.80;;;20.20;47.70;19.40;101304.00;;;;5038341;28;20391;-73
2022/11/10 02:08:19;;;;;;;5.22;1.40;;;20.20;47.70;19.40;101307.00;;;;5055174;28;20032;-73
2022/11/10 02:10:45;;;;;;;7.63;2.33;;;20.20;47.60;19.30;101305.00;;;;5045596;28;20162;-73
2022/11/10 02:13:11;;;;;;;4.63;1.53;;;20.20;47.70;19.30;101306.00;;;;5073141;28;20060;-74
2022/11/10 02:15:37;;;;;;;8.87;1.40;;;20.20;47.60;19.30;101308.00;;;;5055867;28;20273;-73
2022/11/10 02:18:02;;;;;;;5.97;1.80;;;20.20;47.60;19.30;101307.00;;;;5051629;28;20044;-73
2022/11/10 02:20:28;;;;;;;7.53;1.77;;;20.20;47.60;19.30;101308.00;;;;5072607;28;20501;-73
2022/11/10 02:22:54;;;;;;;3.70;1.53;;;20.20;47.70;19.30;101307.00;;;;5077070;28;20059;-73
2022/11/10 02:25:21;;;;;;;4.63;1.60;;;20.20;47.70;19.30;101299.00;;;;5047263;28;20436;-73
2022/11/10 02:27:47;;;;;;;4.72;1.33;;;20.20;47.60;19.30;101300.00;;;;5055516;28;20059;-73
2022/11/10 02:30:13;;;;;;;3.30;1.20;;;20.20;47.60;19.30;101303.00;;;;5072659;28;20033;-73
2022/11/10 02:32:39;;;;;;;4.78;1.50;;;20.20;47.60;19.30;101299.00;;;;5055013;28;20123;-73
2022/11/10 02:35:05;;;;;;;4.27;1.50;;;20.20;47.60;19.30;101303.00;;;;5073138;28;20081;-73
2022/11/10 02:37:31;;;;;;;5.05;1.63;;;20.20;47.70;19.30;101308.00;;;;5073844;28;20023;-73
2022/11/10 02:39:56;;;;;;;2.43;1.10;;;20.20;47.70;19.30;101313.00;;;;5054786;28;20045;-73
2022/11/10 02:42:22;;;;;;;3.60;1.27;;;20.20;47.70;19.30;101318.00;;;;5072598;28;20103;-73
2022/11/10 02:44:48;;;;;;;6.97;1.97;;;20.20;47.70;19.30;101312.00;;;;5073124;28;20113;-73
2022/11/10 02:47:14;;;;;;;6.77;1.37;;;20.10;47.60;19.30;101317.00;;;;5073045;28;20060;-73
2022/11/10 02:49:39;;;;;;;5.23;1.50;;;20.10;47.60;19.30;101324.00;;;;5071943;28;20490;-73
2022/11/10 02:52:05;;;;;;;4.33;1.60;;;20.20;47.60;19.30;101323.00;;;;5072334;28;20107;-73
2022/11/10 02:54:31;;;;;;;5.27;1.73;;;20.10;47.50;19.30;101330.00;;;;5068148;28;20059;-73
2022/11/10 02:56:56;;;;;;;4.10;1.60;;;20.10;47.50;19.30;101327.00;;;;5073811;28;20093;-73
2022/11/10 02:59:22;;;;;;;5.10;1.37;;;20.20;47.60;19.30;101322.00;;;;5071829;28;20425;-74
2022/11/10 03:01:48;;;;;;;3.63;1.50;;;20.00;47.50;19.30;101325.00;;;;5084301;28;20107;-73
2022/11/10 03:04:14;;;;;;;4.90;1.33;;;20.10;47.60;19.30;101330.00;;;;5071817;28;20423;-74
2022/11/10 03:06:39;;;;;;;7.83;2.00;;;20.10;47.60;19.30;101332.00;;;;5072748;28;20048;-73
2022/11/10 03:09:05;;;;;;;4.60;1.47;;;20.10;47.60;19.30;101335.00;;;;5072677;28;20119;-73
2022/11/10 03:11:31;;;;;;;3.97;1.60;;;20.10;47.60;19.30;101340.00;;;;5083979;28;20072;-73
2022/11/10 03:13:57;;;;;;;5.17;1.80;;;20.10;47.60;19.30;101341.00;;;;5071520;28;20127;-73
2022/11/10 03:16:22;;;;;;;2.97;1.43;;;20.10;47.60;19.30;101349.00;;;;5072540;28;20121;-73
2022/11/10 03:18:48;;;;;;;6.27;1.70;;;20.10;47.60;19.30;101366.00;;;;5071183;28;20071;-73
2022/11/10 03:21:14;;;;;;;1.93;1.13;;;20.10;47.70;19.30;101365.00;;;;5071459;28;20068;-73
2022/11/10 03:23:40;;;;;;;5.05;1.65;;;20.10;47.70;19.30;101359.00;;;;5071205;28;20100;-74
2022/11/10 03:26:06;;;;;;;7.67;2.33;;;20.10;47.60;19.20;101362.00;;;;5072810;28;20032;-74
2022/11/10 03:28:32;;;;;;;6.40;1.52;;;20.10;47.70;19.30;101360.00;;;;5037089;28;20095;-73
2022/11/10 03:30:58;;;;;;;5.30;1.67;;;20.10;47.70;19.30;101360.00;;;;5072854;28;20059;-73
2022/11/10 03:33:23;;;;;;;5.63;1.70;;;20.10;47.80;19.30;101369.00;;;;5071050;28;20032;-73
2022/11/10 03:35:49;;;;;;;3.50;1.50;;;20.10;47.80;19.30;101380.00;;;;5072460;28;20548;-73
2022/11/10 03:38:15;;;;;;;5.00;1.70;;;20.20;47.80;19.30;101377.00;;;;5071366;28;20103;-73
2022/11/10 03:40:40;;;;;;;5.87;2.00;;;20.10;47.80;19.30;101372.00;;;;5071972;28;20048;-73
2022/11/10 03:43:07;;;;;;;7.87;1.80;;;20.10;47.80;19.30;101366.00;;;;5071385;28;20119;-73
2022/11/10 03:45:32;;;;;;;6.35;1.77;;;20.10;47.80;19.30;101371.00;;;;5054127;28;20045;-73
2022/11/10 03:47:58;;;;;;;5.27;1.90;;;20.20;47.80;19.30;101381.00;;;;5071836;28;20055;-73
2022/11/10 03:50:24;;;;;;;5.53;1.70;;;20.10;47.90;19.30;101383.00;;;;5071407;28;20067;-73
2022/11/10 03:52:50;;;;;;;5.27;1.57;;;20.10;47.80;19.30;101390.00;;;;5070606;28;20419;-73
2022/11/10 03:55:16;;;;;;;4.27;1.73;;;20.10;47.80;19.30;101394.00;;;;5071971;28;20489;-73
2022/11/10 03:57:42;;;;;;;5.03;1.52;;;20.10;47.80;19.30;101401.00;;;;5071863;28;20024;-73
2022/11/10 04:00:11;;;;;;;3.63;1.57;;;20.10;47.80;19.30;101403.00;;;;5070698;28;20040;-73
2022/11/10 04:02:37;;;;;;;4.80;2.10;;;20.10;47.80;19.30;101403.00;;;;5055623;28;20024;-73
2022/11/10 04:10:35;;;;;;;6.78;1.65;;;20.10;47.80;19.30;101423.00;;;;5078218;28;20035;-73
2022/11/10 04:15:45;;;;;;;5.45;1.48;;;20.10;47.80;19.30;101425.00;;;;5071104;28;20450;-73
2022/11/10 04:18:23;;;;;;;5.63;1.60;;;20.10;47.90;19.30;101432.00;;;;5052837;28;20033;-73
2022/11/10 04:20:53;;;;;;;5.90;1.92;;;20.10;47.80;19.30;101441.00;;;;5067108;28;20374;-73
2022/11/10 04:23:25;;;;;;;9.52;2.30;;;20.10;47.80;19.30;101446.00;;;;5054534;28;20497;-73
2022/11/10 04:26:30;;;;;;;4.72;1.98;;;20.10;47.80;19.20;101445.00;;;;5074811;28;20036;-73
2022/11/10 04:28:59;;;;;;;4.00;1.75;;;20.10;47.80;19.20;101445.00;;;;5051466;28;20029;-73
2022/11/10 04:31:27;;;;;;;5.35;1.63;;;20.10;47.80;19.30;101444.00;;;;5053589;28;20119;-73
2022/11/10 04:33:53;;;;;;;5.78;2.05;;;20.10;47.80;19.30;101443.00;;;;5070058;28;20035;-73
2022/11/10 04:36:21;;;;;;;6.28;2.20;;;20.10;47.80;19.20;101445.00;;;;5063471;28;20415;-73
2022/11/10 04:38:47;;;;;;;8.15;2.30;;;20.10;47.80;19.20;101449.00;;;;5070317;28;20032;-73
2022/11/10 04:41:12;;;;;;;4.63;1.83;;;20.10;47.80;19.20;101453.00;;;;5079646;28;20060;-73
2022/11/10 04:43:38;;;;;;;5.87;2.00;;;20.10;48.60;19.30;101454.00;;;;5070334;28;21034;-73
2022/11/10 04:46:05;;;;;;;3.28;1.70;;;20.10;47.80;19.20;101450.00;;;;5053011;28;20542;-73
2022/11/10 04:48:31;;;;;;;5.28;2.15;;;20.10;47.80;19.20;101462.00;;;;5069649;28;20029;-73
2022/11/10 04:51:01;;;;;;;6.65;2.20;;;20.10;47.90;19.20;101450.00;;;;5074920;28;20032;-73
2022/11/10 04:53:27;;;;;;;5.28;1.52;;;20.10;47.90;19.20;101466.00;;;;5036029;28;20103;-73
2022/11/10 04:55:52;;;;;;;6.07;1.87;;;20.10;47.90;19.20;101476.00;;;;5071305;28;20036;-73
2022/11/10 04:58:18;;;;;;;4.40;1.80;;;20.10;47.80;19.20;101480.00;;;;5055350;28;20037;-73
2022/11/10 05:00:44;;;;;;;5.63;1.77;;;20.10;47.90;19.20;101490.00;;;;5070401;28;20541;-73
2022/11/10 05:03:10;;;;;;;6.43;2.47;;;20.10;47.90;19.20;101488.00;;;;5070077;28;20425;-73
2022/11/10 05:05:36;;;;;;;5.55;1.92;;;20.10;47.90;19.20;101491.00;;;;5052060;28;20457;-73
2022/11/10 05:08:02;;;;;;;6.10;2.00;;;20.10;47.90;19.20;101488.00;;;;5078049;28;20035;-73
2022/11/10 05:10:28;;;;;;;5.07;2.20;;;20.10;47.90;19.20;101490.00;;;;5070058;28;20037;-73
2022/11/10 05:12:57;;;;;;;8.47;1.90;;;20.10;47.90;19.20;101502.00;;;;5069639;28;20040;-73
2022/11/10 05:15:23;;;;;;;5.13;1.90;;;20.10;47.90;19.20;101505.00;;;;5051008;28;20068;-73
2022/11/10 05:17:50;;;;;;;6.13;1.95;;;20.10;47.90;19.20;101510.00;;;;5069210;28;20075;-74
2022/11/10 05:20:17;;;;;;;6.95;1.73;;;20.10;48.00;19.20;101510.00;;;;5069981;28;20044;-73
2022/11/10 05:23:36;;;;;;;6.50;2.13;;;20.10;48.00;19.20;101512.00;;;;5066083;28;20016;-73
2022/11/10 05:25:32;;;;;;;7.40;2.47;;;20.10;48.00;19.20;101520.00;;;;5054962;28;20116;-73
2022/11/10 05:27:58;;;;;;;7.03;2.10;;;20.00;48.00;19.20;101526.00;;;;5052263;28;20194;-73
2022/11/10 05:30:24;;;;;;;8.13;2.30;;;20.10;48.00;19.20;101529.00;;;;5069609;28;20048;-73
2022/11/10 05:32:49;;;;;;;6.30;1.80;;;20.00;48.00;19.20;101535.00;;;;5049430;28;20039;-73
2022/11/10 05:35:15;;;;;;;6.37;2.10;;;20.10;48.00;19.20;101531.00;;;;5070015;28;20064;-73
2022/11/10 05:37:41;;;;;;;6.87;2.40;;;20.00;48.10;19.20;101531.00;;;;5070085;28;20086;-73
2022/11/10 05:40:07;;;;;;;5.23;1.97;;;20.10;48.10;19.20;101535.00;;;;5069405;28;20068;-73
2022/11/10 05:42:33;;;;;;;6.07;2.10;;;20.00;48.00;19.20;101541.00;;;;5066626;28;20142;-73
2022/11/10 05:44:59;;;;;;;7.97;1.80;;;20.00;48.10;19.20;101536.00;;;;5070301;28;20036;-73
2022/11/10 05:47:25;;;;;;;4.97;2.23;;;20.10;48.10;19.20;101530.00;;;;5069025;28;20490;-73
2022/11/10 05:49:50;;;;;;;4.47;2.10;;;20.10;48.10;19.20;101530.00;;;;5069381;28;20060;-73
2022/11/10 05:52:16;;;;;;;7.27;2.13;;;20.10;48.10;19.20;101522.00;;;;5068494;28;20118;-73
2022/11/10 05:54:42;;;;;;;6.17;2.03;;;20.10;48.10;19.20;101520.00;;;;5069986;28;20109;-73
2022/11/10 05:57:07;;;;;;;5.60;1.80;;;20.00;48.00;19.20;101526.00;;;;5068830;28;20124;-73
2022/11/10 05:59:33;;;;;;;7.50;2.63;;;20.00;48.00;19.20;101536.00;;;;5068621;28;20059;-73
2022/11/10 06:01:59;;;;;;;5.57;1.97;;;20.10;48.10;19.20;101543.00;;;;5069572;28;20087;-73
2022/11/10 06:04:24;;;;;;;5.37;1.70;;;20.10;48.10;19.20;101542.00;;;;5067167;28;20450;-73
2022/11/10 06:06:50;;;;;;;6.60;2.10;;;20.10;48.00;19.20;101538.00;;;;5069807;28;20501;-73
2022/11/10 06:09:16;;;;;;;4.47;1.73;;;20.10;48.10;19.20;101533.00;;;;5068414;28;20110;-73
2022/11/10 06:11:42;;;;;;;5.67;1.67;;;20.10;48.10;19.20;101549.00;;;;5069763;28;20099;-73
2022/11/10 06:14:07;;;;;;;6.20;1.70;;;20.10;48.00;19.20;101557.00;;;;5067239;28;20082;-73
2022/11/10 06:16:33;;;;;;;5.07;1.93;;;20.10;48.00;19.20;101551.00;;;;5063915;28;20060;-73
2022/11/10 06:18:59;;;;;;;4.60;1.80;;;20.10;48.00;19.20;101557.00;;;;5069717;28;20346;-73
2022/11/10 06:21:25;;;;;;;5.63;1.73;;;20.10;47.90;19.20;101563.00;;;;5064677;28;20111;-73
2022/11/10 06:23:50;;;;;;;5.63;1.70;;;20.10;47.90;19.20;101571.00;;;;5066184;28;20107;-73
2022/11/10 06:26:16;;;;;;;8.77;1.87;;;20.00;47.90;19.20;101579.00;;;;5069586;28;20064;-73
2022/11/10 06:28:42;;;;;;;4.80;1.93;;;20.10;47.90;19.20;101592.00;;;;5051712;28;20107;-73
2022/11/10 06:31:07;;;;;;;7.97;2.17;;;20.10;47.90;19.20;101600.00;;;;5069974;28;20124;-73
2022/11/10 06:33:33;;;;;;;6.10;1.80;;;20.10;47.90;19.20;101601.00;;;;5066650;28;20112;-73
2022/11/10 06:35:59;;;;;;;8.27;1.90;;;20.00;47.80;19.20;101594.00;;;;5066988;28;20103;-73
2022/11/10 06:38:25;;;;;;;7.57;1.60;;;20.00;47.90;19.20;101595.00;;;;5066436;28;20103;-73
2022/11/10 06:40:50;;;;;;;6.90;2.17;;;20.10;48.00;19.20;101597.00;;;;5068414;28;20114;-73
2022/11/10 06:43:16;;;;;;;5.70;1.97;;;20.10;48.00;19.20;101609.00;;;;5066595;28;20056;-73
2022/11/10 06:45:42;;;;;;;7.20;2.17;;;20.00;47.90;19.20;101613.00;;;;5063042;28;20481;-73
2022/11/10 06:48:10;;;;;;;7.50;2.20;;;20.00;47.90;19.20;101612.00;;;;5070167;28;20107;-73
2022/11/10 06:50:36;;;;;;;4.93;1.52;;;20.00;47.90;19.20;101615.00;;;;5039633;28;20029;-73
2022/11/10 06:53:02;;;;;;;8.43;2.07;;;20.00;47.90;19.20;101618.00;;;;5053556;28;20089;-73
2022/11/10 06:55:28;;;;;;;6.07;2.00;;;20.00;47.90;19.10;101617.00;;;;5071864;28;20028;-73
2022/11/10 06:57:54;;;;;;;6.30;1.97;;;20.00;47.90;19.10;101619.00;;;;5052096;28;20066;-74
2022/11/10 07:00:20;;;;;;;7.60;1.77;;;20.00;47.90;19.10;101622.00;;;;5072544;28;20565;-73
2022/11/10 07:02:45;;;;;;;6.18;1.65;;;20.00;48.00;19.10;101632.00;;;;5054587;28;20060;-73
2022/11/10 07:05:11;;;;;;;8.53;2.07;;;20.00;47.90;19.10;101637.00;;;;5072686;28;20039;-73
2022/11/10 07:07:37;;;;;;;5.57;1.93;;;20.00;47.90;19.10;101646.00;;;;5072093;28;20056;-73
2022/11/10 07:10:03;;;;;;;4.10;1.93;;;20.00;47.90;19.10;101656.00;;;;5070515;28;20241;-73
2022/11/10 07:12:29;;;;;;;4.45;1.70;;;20.00;48.60;19.10;101666.00;;;;5053323;28;20539;-73
2022/11/10 07:14:54;;;;;;;6.53;1.63;;;20.00;47.90;19.10;101668.00;;;;5069349;28;20567;-73
2022/11/10 07:17:21;;;;;;;4.83;1.73;;;20.00;47.90;19.10;101668.00;;;;5066241;28;20123;-73
2022/11/10 07:19:46;;;;;;;5.25;2.03;;;20.00;47.90;19.10;101673.00;;;;5068056;28;20024;-74
2022/11/10 07:22:12;;;;;;;7.60;1.77;;;19.90;47.90;19.10;101675.00;;;;5071210;28;20025;-73
2022/11/10 07:24:38;;;;;;;5.83;1.90;;;20.00;48.00;19.10;101679.00;;;;5070250;28;20517;-73
2022/11/10 07:27:03;;;;;;;6.63;2.10;;;20.00;48.10;19.10;101683.00;;;;5080073;28;20115;-74
2022/11/10 07:29:29;;;;;;;7.43;1.80;;;20.00;48.00;19.10;101687.00;;;;5072490;28;20059;-73
2022/11/10 07:31:55;;;;;;;5.33;1.90;;;20.00;48.00;19.10;101680.00;;;;5053598;28;20063;-74
2022/11/10 07:34:21;;;;;;;4.47;1.90;;;20.00;48.10;19.10;101689.00;;;;5053489;28;20103;-73
2022/11/10 07:36:46;;;;;;;4.97;1.90;;;19.90;48.10;19.10;101695.00;;;;5075661;28;20120;-74
2022/11/10 07:39:12;;;;;;;5.10;1.53;;;19.90;48.00;19.10;101697.00;;;;5036385;28;20439;-74
2022/11/10 07:41:38;;;;;;;6.73;1.90;;;20.00;48.10;19.10;101698.00;;;;5071763;28;20070;-73
2022/11/10 07:44:04;;;;;;;8.93;2.38;;;20.00;48.80;19.10;101705.00;;;;5071028;28;20437;-74
2022/11/10 07:46:30;;;;;;;7.63;2.23;;;20.00;48.10;19.10;101705.00;;;;5071548;28;20093;-73
2022/11/10 07:48:56;;;;;;;5.83;1.93;;;19.90;48.00;19.10;101716.00;;;;5049614;28;20112;-73
2022/11/10 07:51:21;;;;;;;8.63;1.77;;;20.00;48.10;19.10;101721.00;;;;5069495;28;20059;-73
2022/11/10 07:53:47;;;;;;;5.60;1.70;;;20.00;48.10;19.10;101713.00;;;;5068257;28;20056;-73
2022/11/10 07:56:13;;;;;;;7.30;2.23;;;20.00;48.10;19.10;101728.00;;;;5071182;28;20111;-73
2022/11/10 07:58:39;;;;;;;6.73;1.70;;;19.90;48.10;19.10;101737.00;;;;5069234;28;20112;-73
2022/11/10 08:01:05;;;;;;;7.73;1.97;;;20.00;48.10;19.10;101741.00;;;;5066654;28;20123;-73
2022/11/10 08:03:30;;;;;;;6.43;2.20;;;19.90;48.00;19.10;101731.00;;;;5069018;28;20051;-73
2022/11/10 08:05:56;;;;;;;8.77;2.10;;;19.90;48.00;19.10;101731.00;;;;5069788;28;20044;-74
2022/11/10 08:08:22;;;;;;;5.57;2.00;;;19.90;48.00;19.10;101731.00;;;;5069453;28;20506;-73
2022/11/10 08:10:47;;;;;;;4.70;1.70;;;20.00;48.00;19.10;101743.00;;;;5069204;28;20567;-73
2022/11/10 08:13:13;;;;;;;6.63;2.00;;;20.00;48.10;19.10;101741.00;;;;5067648;28;20043;-73
2022/11/10 08:15:40;;;;;;;5.90;1.70;;;20.00;48.20;19.10;101741.00;;;;5070006;28;20111;-73
2022/11/10 08:18:20;;;;;;;7.43;1.83;;;20.00;48.10;19.10;101739.00;;;;5050181;28;20562;-73
2022/11/10 08:20:47;;;;;;;8.07;2.42;;;20.00;48.10;19.10;101749.00;;;;5046474;28;20475;-73
2022/11/10 08:23:13;;;;;;;6.75;1.77;;;20.00;48.10;19.10;101747.00;;;;5049215;28;20074;-73
2022/11/10 08:25:39;;;;;;;7.10;1.55;;;20.00;48.20;19.10;101756.00;;;;5065681;28;20107;-73
2022/11/10 08:28:10;;;;;;;6.60;1.87;;;19.90;48.10;19.10;101757.00;;;;5067010;28;20111;-73
2022/11/10 08:30:36;;;;;;;7.40;2.17;;;19.90;48.20;19.10;101771.00;;;;5049492;28;20507;-73
2022/11/10 08:33:03;;;;;;;6.25;1.90;;;20.00;48.20;19.10;101779.00;;;;5070080;28;20111;-74
2022/11/10 08:35:30;;;;;;;5.28;1.80;;;20.00;48.20;19.10;101780.00;;;;5052829;28;20033;-74
2022/11/10 08:37:56;;;;;;;3.65;1.60;;;19.90;48.90;19.10;101773.00;;;;5052481;28;20533;-73
2022/11/10 08:40:23;;;;;;;5.80;1.67;;;19.90;48.20;19.10;101772.00;;;;5059522;28;20032;-73
2022/11/10 08:42:58;;;;;;;8.18;1.83;;;19.90;48.90;19.10;101784.00;;;;5076281;28;20098;-73
2022/11/10 08:45:24;;;;;;;8.90;2.40;;;20.00;48.20;19.10;101795.00;;;;5054286;28;20481;-73
2022/11/10 08:48:04;;;;;;;7.10;2.23;;;19.90;48.20;19.00;101787.00;;;;5052524;28;20035;-74
2022/11/10 08:50:29;;;;;;;10.10;1.80;;;20.00;48.30;19.10;101794.00;;;;5069520;28;20025;-73
2022/11/10 08:52:55;;;;;;;9.87;1.53;;;20.00;48.20;19.10;101798.00;;;;5070230;28;20322;-73
2022/11/10 08:55:21;;;;;;;5.10;1.57;;;20.00;48.30;19.10;101801.00;;;;5070597;28;20035;-73
2022/11/10 08:57:47;;;;;;;10.63;1.80;;;20.00;48.30;19.00;101794.00;;;;5052693;28;20508;-73
2022/11/10 09:00:15;;;;;;;6.30;1.70;;;20.00;48.30;19.00;101797.00;;;;5051659;28;20040;-73
2022/11/10 09:02:40;;;;;;;7.97;1.65;;;20.00;48.30;19.00;101800.00;;;;5069816;28;20024;-73
2022/11/10 09:05:07;;;;;;;6.10;1.57;;;20.00;48.30;19.00;101791.00;;;;5070058;28;20036;-73
2022/11/10 09:07:45;;;;;;;6.63;2.13;;;19.90;48.30;19.00;101792.00;;;;5066997;28;20027;-73
2022/11/10 09:10:12;;;;;;;8.23;1.85;;;19.90;48.30;19.00;101806.00;;;;5050536;28;20029;-73
2022/11/10 09:12:38;;;;;;;8.20;2.30;;;20.00;48.30;19.00;101800.00;;;;5055552;28;20086;-73
2022/11/10 09:15:04;;;;;;;8.48;1.80;;;20.00;48.40;19.00;101809.00;;;;5054154;28;20024;-73
2022/11/10 09:17:41;;;;;;;5.72;1.55;;;20.00;48.60;19.00;101811.00;;;;5067037;28;20029;-73
2022/11/10 09:20:07;;;;;;;7.75;2.10;;;20.00;48.40;19.00;101815.00;;;;5049196;28;20120;-73
2022/11/10 09:22:36;;;;;;;6.53;2.05;;;20.00;48.40;19.00;101820.00;;;;5048644;28;20438;-73
2022/11/10 09:25:02;;;;;;;6.72;1.58;;;20.00;48.40;19.00;101823.00;;;;5067562;28;20426;-73
2022/11/10 09:27:28;;;;;;;3.93;1.77;;;20.00;48.40;19.00;101827.00;;;;5049331;28;20044;-73
2022/11/10 09:29:54;;;;;;;6.60;1.73;;;20.00;48.40;19.00;101830.00;;;;5069077;28;20120;-73
2022/11/10 09:32:19;;;;;;;7.00;1.80;;;20.00;48.50;19.00;101842.00;;;;5066888;28;20102;-73
2022/11/10 09:34:45;;;;;;;4.87;1.50;;;20.00;48.50;19.00;101838.00;;;;5070247;28;20036;-73
2022/11/10 09:37:11;;;;;;;5.97;1.97;;;20.00;48.50;19.00;101839.00;;;;5051566;28;20063;-73
2022/11/10 09:39:37;;;;;;;6.53;1.60;;;19.90;48.50;19.00;101844.00;;;;5069749;28;20097;-73
2022/11/10 09:42:12;;;;;;;6.53;1.47;;;20.00;48.50;19.00;101844.00;;;;5069291;28;20109;-73
2022/11/10 09:44:43;;;;;;;4.78;1.50;;;20.00;48.60;19.00;101841.00;;;;5035894;28;20135;-73
2022/11/10 09:47:13;;;;;;;8.88;1.80;;;19.90;48.50;19.00;101847.00;;;;5046357;28;20042;-73
2022/11/10 09:50:06;;;;;;;5.25;1.38;;;20.00;48.60;19.00;101835.00;;;;5046697;28;20031;-72
2022/11/10 09:52:33;;;;;;;9.35;1.63;;;20.00;48.60;19.00;101831.00;;;;5064933;28;20037;-73
2022/11/10 09:55:45;;;;;;;8.98;1.80;;;20.00;48.60;19.00;101836.00;;;;5047957;28;20033;-73
2022/11/10 09:58:11;;;;;;;3.88;1.27;;;20.00;48.60;19.00;101841.00;;;;5045878;28;20078;-73
2022/11/10 10:00:37;;;;;;;6.88;1.45;;;20.00;48.60;19.00;101845.00;;;;5055615;28;20032;-73
2022/11/10 10:03:04;;;;;;;7.00;1.70;;;20.00;48.60;19.00;101846.00;;;;5059725;28;20032;-73
2022/11/10 10:06:08;;;;;;;9.70;1.70;;;20.00;48.70;19.00;101856.00;;;;5049394;28;20075;-73
2022/11/10 10:08:44;;;;;;;4.25;1.30;;;20.00;48.80;19.10;101857.00;;;;5058318;28;20646;-73
2022/11/10 10:11:40;;;;;;;5.85;1.25;;;20.00;48.80;19.00;101869.00;;;;5057865;28;20028;-73
2022/11/10 10:14:39;;;;;;;6.95;1.52;;;20.00;48.70;19.00;101869.00;;;;5047364;28;20085;-73
2022/11/10 10:17:17;;;;;;;4.30;1.35;;;20.00;48.70;19.00;101865.00;;;;5047292;28;20024;-73
2022/11/10 10:20:04;;;;;;;4.13;1.20;;;20.00;48.80;19.00;101880.00;;;;5049009;28;20029;-73
2022/11/10 10:22:51;;;;;;;8.00;1.63;;;20.00;48.80;19.00;101877.00;;;;5049489;28;20501;-73
2022/11/10 10:25:23;;;;;;;6.05;1.88;;;20.00;48.90;19.00;101875.00;;;;5037851;28;20488;-73
2022/11/10 10:28:00;;;;;;;3.60;1.20;;;20.00;48.80;19.00;101875.00;;;;5052696;28;20039;-73
2022/11/10 10:30:26;;;;;;;5.45;1.40;;;20.00;48.80;19.10;101872.00;;;;5053088;28;20469;-73
2022/11/10 10:32:58;;;;;;;5.60;1.60;;;20.00;48.90;19.10;101879.00;;;;5050908;28;21712;-73
2022/11/10 10:35:23;;;;;;;6.07;1.83;;;20.00;48.90;19.10;101887.00;;;;5022166;28;20078;-73
2022/11/10 10:37:54;;;;;;;4.33;1.33;;;20.00;48.90;19.10;101888.00;;;;5057206;28;20032;-73
2022/11/10 10:40:22;;;;;;;6.15;1.45;;;20.00;48.90;19.10;101893.00;;;;5051250;28;20329;-73
2022/11/10 10:42:48;;;;;;;6.93;1.55;;;20.00;49.00;19.10;101891.00;;;;5070223;28;20499;-73
2022/11/10 10:45:27;;;;;;;7.30;1.60;;;20.00;49.00;19.10;101892.00;;;;5054003;28;20025;-73
2022/11/10 10:47:55;;;;;;;6.25;1.60;;;20.00;49.10;19.10;101903.00;;;;5051142;28;20032;-73
2022/11/10 10:50:34;;;;;;;8.90;1.83;;;20.00;49.00;19.10;101908.00;;;;5065285;28;20036;-73
2022/11/10 10:53:20;;;;;;;4.53;1.15;;;20.00;49.10;19.10;101900.00;;;;5070605;28;20036;-73
2022/11/10 10:56:15;;;;;;;7.68;1.60;;;20.00;49.10;19.00;101902.00;;;;5051070;28;20040;-73
2022/11/10 10:58:55;;;;;;;7.43;1.60;;;20.00;49.10;19.00;101906.00;;;;5060849;28;20549;-73
2022/11/10 11:01:36;;;;;;;10.93;2.13;;;20.00;49.10;19.10;101898.00;;;;5053937;28;20102;-73